createdAt,value
2022-08-07T00:00:15.309Z,97425.72
2022-08-07T00:03:15.634Z,97435.06
2022-08-07T00:06:13.294Z,97430.38
2022-08-07T00:09:16.684Z,97427.25
2022-08-07T00:12:19.319Z,97433.41
2022-08-07T00:15:16.638Z,97418.16
2022-08-07T00:18:24.028Z,97418.03
2022-08-07T00:21:55.946Z,97411.47
2022-08-07T00:24:38.753Z,97416.09
2022-08-07T00:27:53.235Z,97408.97
2022-08-07T00:30:50.936Z,97408.63
2022-08-07T00:33:47.967Z,97409.44
2022-08-07T00:36:44.884Z,97401.06
2022-08-07T00:39:45.090Z,97390.00
2022-08-07T00:42:51.020Z,97394.13
2022-08-07T00:45:49.639Z,97391.63
2022-08-07T00:48:49.889Z,97388.47
2022-08-07T00:51:57.020Z,97385.19
2022-08-07T00:54:55.639Z,97378.22
2022-08-07T00:57:55.873Z,97384.44
2022-08-07T01:00:53.897Z,97381.03
2022-08-07T01:03:56.904Z,97377.44
2022-08-07T01:06:56.866Z,97378.16
2022-08-07T01:10:05.711Z,97370.53
2022-08-07T01:13:05.466Z,97379.78
2022-08-07T01:16:06.104Z,97380.53
2022-08-07T01:19:14.884Z,97380.66
2022-08-07T01:22:22.878Z,97373.50
2022-08-07T01:25:53.997Z,97377.97
2022-08-07T01:28:51.788Z,97378.34
2022-08-07T01:31:49.646Z,97378.75
2022-08-07T01:34:47.501Z,97392.06
2022-08-07T01:37:46.693Z,97380.72
2022-08-07T01:40:45.753Z,97377.63
2022-08-07T01:43:44.889Z,97383.25
2022-08-07T01:46:42.938Z,97391.22
2022-08-07T01:49:39.898Z,97392.69
2022-08-07T01:52:38.969Z,97397.06
2022-08-07T01:55:51.319Z,97387.50
2022-08-07T01:58:59.144Z,97388.03
2022-08-07T02:03:11.485Z,97386.47
2022-08-07T02:05:48.207Z,97394.56
2022-08-07T02:09:00.015Z,97387.38
2022-08-07T02:12:03.460Z,97376.50
2022-08-07T02:15:06.766Z,97371.63
2022-08-07T02:18:04.882Z,97383.66
2022-08-07T02:21:06.391Z,97385.84
2022-08-07T02:24:04.643Z,97388.19
2022-08-07T02:27:02.805Z,97378.63
2022-08-07T02:30:03.546Z,97380.91
2022-08-07T02:33:09.515Z,97379.78
2022-08-07T02:36:28.266Z,97371.00
2022-08-07T02:39:43.085Z,97381.00
2022-08-07T02:42:41.998Z,97373.09
2022-08-07T02:45:58.069Z,97366.13
2022-08-07T02:48:58.274Z,97365.25
2022-08-07T02:51:58.851Z,97360.13
2022-08-07T02:54:58.346Z,97364.16
2022-08-07T02:58:02.940Z,97366.75
2022-08-07T03:01:03.416Z,97354.16
2022-08-07T03:04:03.473Z,97358.44
2022-08-07T03:07:07.220Z,97356.34
2022-08-07T03:10:09.625Z,97350.63
2022-08-07T03:13:07.557Z,97354.75
2022-08-07T03:16:05.987Z,97349.09
2022-08-07T03:19:03.171Z,97351.22
2022-08-07T03:22:04.399Z,97355.84
2022-08-07T03:25:01.888Z,97347.00
2022-08-07T03:28:09.731Z,97355.09
2022-08-07T03:31:24.728Z,97343.94
2022-08-07T03:34:39.719Z,97341.50
2022-08-07T03:37:54.043Z,97348.28
2022-08-07T03:40:57.344Z,97354.28
2022-08-07T03:43:57.090Z,97347.66
2022-08-07T03:47:12.959Z,97348.53
2022-08-07T03:50:11.784Z,97351.00
2022-08-07T03:53:10.354Z,97346.50
2022-08-07T03:56:10.196Z,97349.41
2022-08-07T03:59:13.874Z,97338.66
2022-08-07T04:02:11.892Z,97345.84
2022-08-07T04:05:11.485Z,97345.41
2022-08-07T04:08:16.063Z,97352.88
2022-08-07T04:12:25.548Z,97345.97
2022-08-07T04:14:37.248Z,97341.66
2022-08-07T04:18:31.004Z,97352.16
2022-08-07T04:20:54.561Z,97357.91
2022-08-07T04:24:05.678Z,97356.38
2022-08-07T04:27:05.245Z,97351.44
2022-08-07T04:30:35.581Z,97356.50
2022-08-07T04:33:29.598Z,97353.38
2022-08-07T04:36:26.899Z,97356.22
2022-08-07T04:39:27.989Z,97359.19
2022-08-07T04:42:34.368Z,97361.81
2022-08-07T04:46:00.691Z,97358.09
2022-08-07T04:49:38.671Z,97361.88
2022-08-07T04:52:59.335Z,97365.44
2022-08-07T04:58:24.301Z,97367.59
2022-08-07T05:00:11.222Z,97365.78
2022-08-07T05:04:00.475Z,97376.81
2022-08-07T05:07:09.578Z,97370.69
2022-08-07T05:10:23.186Z,97374.97
2022-08-07T05:14:54.446Z,97380.63
2022-08-07T05:16:59.032Z,97376.72
2022-08-07T05:19:57.516Z,97373.38
2022-08-07T05:23:07.009Z,97373.09
2022-08-07T05:26:23.951Z,97372.72
2022-08-07T05:29:23.687Z,97374.72
2022-08-07T05:32:24.819Z,97367.66
2022-08-07T05:35:23.892Z,97371.06
2022-08-07T05:38:59.452Z,97366.06
2022-08-07T05:42:01.880Z,97371.34
2022-08-07T05:45:14.445Z,97372.84
2022-08-07T05:48:20.927Z,97376.03
2022-08-07T05:51:24.586Z,97373.03
2022-08-07T05:54:44.060Z,97370.13
2022-08-07T05:57:42.381Z,97372.78
2022-08-07T06:00:40.279Z,97374.28
2022-08-07T06:03:56.848Z,97379.03
2022-08-07T06:07:03.367Z,97378.19
2022-08-07T06:10:05.598Z,97377.09
2022-08-07T06:13:03.479Z,97383.94
2022-08-07T06:16:03.330Z,97383.72
2022-08-07T06:19:03.061Z,97381.22
2022-08-07T06:22:15.779Z,97376.16
2022-08-07T06:25:20.633Z,97373.25
2022-08-07T06:28:28.014Z,97373.38
2022-08-07T06:31:46.531Z,97369.63
2022-08-07T06:34:45.288Z,97363.34
2022-08-07T06:37:43.586Z,97359.09
2022-08-07T06:40:48.201Z,97368.16
2022-08-07T06:43:59.191Z,97360.38
2022-08-07T06:47:12.541Z,97360.53
2022-08-07T06:50:13.482Z,97355.94
2022-08-07T06:54:11.546Z,97362.47
2022-08-07T06:56:49.833Z,97364.22
2022-08-07T07:00:12.928Z,97352.59
2022-08-07T07:03:10.871Z,97344.50
2022-08-07T07:06:11.545Z,97346.91
2022-08-07T07:09:31.245Z,97354.16
2022-08-07T07:12:53.778Z,97355.47
2022-08-07T07:16:00.318Z,97346.38
2022-08-07T07:19:34.018Z,97350.41
2022-08-07T07:22:35.894Z,97352.03
2022-08-07T07:26:35.139Z,97345.94
2022-08-07T07:29:38.674Z,97338.00
2022-08-07T07:32:23.940Z,97344.59
2022-08-07T07:35:23.124Z,97335.97
2022-08-07T07:38:25.411Z,97338.03
2022-08-07T07:41:24.099Z,97336.28
2022-08-07T07:44:49.671Z,97333.03
2022-08-07T07:47:52.647Z,97335.41
2022-08-07T07:50:52.304Z,97320.97
2022-08-07T07:53:52.814Z,97322.59
2022-08-07T07:56:52.436Z,97326.47
2022-08-07T07:59:53.837Z,97321.69
2022-08-07T08:03:01.295Z,97314.25
2022-08-07T08:06:03.912Z,97324.34
2022-08-07T08:09:05.939Z,97320.63
2022-08-07T08:12:06.260Z,97321.34
2022-08-07T08:15:06.847Z,97307.09
2022-08-07T08:18:36.884Z,97308.78
2022-08-07T08:21:58.604Z,97322.41
2022-08-07T08:25:41.859Z,97328.06
2022-08-07T08:28:44.847Z,97317.34
2022-08-07T08:32:17.522Z,97316.41
2022-08-07T08:35:01.549Z,97313.53
2022-08-07T08:38:04.581Z,97306.00
2022-08-07T08:41:57.037Z,97304.44
2022-08-07T08:45:13.320Z,97306.38
2022-08-07T08:48:55.438Z,97296.56
2022-08-07T08:52:24.465Z,97296.91
2022-08-07T08:55:54.730Z,97290.56
2022-08-07T08:59:06.427Z,97286.97
2022-08-07T09:02:35.246Z,97276.03
2022-08-07T09:06:04.905Z,97271.69
2022-08-07T09:09:56.692Z,97270.09
2022-08-07T09:13:14.843Z,97271.09
2022-08-07T09:16:48.131Z,97270.69
2022-08-07T09:20:30.712Z,97276.72
2022-08-07T09:24:53.661Z,97276.09
2022-08-07T09:27:31.168Z,97267.25
2022-08-07T09:30:48.173Z,97267.34
2022-08-07T09:33:58.117Z,97261.69
2022-08-07T09:37:00.541Z,97264.72
2022-08-07T09:40:12.849Z,97246.97
2022-08-07T09:44:19.944Z,97244.72
2022-08-07T09:48:06.180Z,97245.84
2022-08-07T09:52:17.072Z,97238.38
2022-08-07T09:56:02.439Z,97239.22
2022-08-07T09:59:26.935Z,97225.75
2022-08-07T10:03:08.199Z,97222.75
2022-08-07T10:06:37.875Z,97212.06
2022-08-07T10:10:06.228Z,97205.31
2022-08-07T10:14:00.281Z,97196.50
2022-08-07T10:18:01.804Z,97195.25
2022-08-07T10:21:19.827Z,97195.59
2022-08-07T10:25:23.054Z,97203.19
2022-08-07T10:28:49.602Z,97187.69
2022-08-07T10:32:52.715Z,97178.88
2022-08-07T10:36:41.408Z,97172.00
2022-08-07T10:40:09.139Z,97161.59
2022-08-07T10:43:34.186Z,97163.53
2022-08-07T10:46:47.214Z,97154.38
2022-08-07T10:49:54.868Z,97162.03
2022-08-07T10:53:21.238Z,97140.47
2022-08-07T10:57:00.164Z,97143.03
2022-08-07T11:00:36.555Z,97136.28
2022-08-07T11:03:52.671Z,97146.53
2022-08-07T11:07:58.734Z,97129.91
2022-08-07T11:11:35.933Z,97144.78
2022-08-07T11:14:45.419Z,97128.91
2022-08-07T11:18:36.941Z,97125.03
2022-08-07T11:22:03.430Z,97119.53
2022-08-07T11:25:14.864Z,97119.63
2022-08-07T11:28:21.164Z,97127.50
2022-08-07T11:31:49.009Z,97118.69
2022-08-07T11:35:01.004Z,97111.16
2022-08-07T11:38:10.177Z,97104.59
2022-08-07T11:41:31.053Z,97098.31
2022-08-07T11:44:57.883Z,97102.97
2022-08-07T11:48:44.187Z,97099.56
2022-08-07T11:52:37.616Z,97098.34
2022-08-07T11:56:28.839Z,97090.53
2022-08-07T12:00:12.127Z,97099.91
2022-08-07T12:03:44.258Z,97092.44
2022-08-07T12:07:09.052Z,97072.97
2022-08-07T12:10:41.684Z,97077.06
2022-08-07T12:14:05.360Z,97064.84
2022-08-07T12:17:19.877Z,97084.22
2022-08-07T12:20:30.262Z,97083.44
2022-08-07T12:24:07.102Z,97076.78
2022-08-07T12:27:16.905Z,97077.19
2022-08-07T12:30:16.426Z,97078.31
2022-08-07T12:33:28.257Z,97074.81
2022-08-07T12:36:32.940Z,97073.88
2022-08-07T12:39:42.488Z,97070.00
2022-08-07T12:42:52.676Z,97045.47
2022-08-07T12:45:56.635Z,97059.53
2022-08-07T12:49:25.550Z,97054.38
2022-08-07T12:52:52.330Z,97045.34
2022-08-07T12:56:10.300Z,97049.59
2022-08-07T12:59:20.419Z,97044.16
2022-08-07T13:02:33.278Z,97043.72
2022-08-07T13:06:22.045Z,97036.84
2022-08-07T13:10:28.600Z,97032.50
2022-08-07T13:13:47.408Z,97038.81
2022-08-07T13:17:01.033Z,97028.84
2022-08-07T13:20:09.508Z,97023.00
2022-08-07T13:24:01.194Z,97019.47
2022-08-07T13:27:00.411Z,97023.75
2022-08-07T13:30:19.013Z,97018.41
2022-08-07T13:34:33.615Z,97011.88
2022-08-07T13:36:57.596Z,97015.13
2022-08-07T13:40:36.666Z,97019.31
2022-08-07T13:43:52.403Z,97005.50
2022-08-07T13:46:58.781Z,97005.00
2022-08-07T13:50:35.063Z,96989.63
2022-08-07T13:53:23.743Z,97004.06
2022-08-07T13:56:34.958Z,97013.22
2022-08-07T13:59:39.692Z,96996.09
2022-08-07T14:02:39.832Z,96993.09
2022-08-07T14:05:50.698Z,96992.50
2022-08-07T14:08:53.633Z,96997.59
2022-08-07T14:12:10.338Z,96988.06
2022-08-07T14:15:16.746Z,96987.41
2022-08-07T14:18:31.278Z,96984.72
2022-08-07T14:22:01.696Z,96980.97
2022-08-07T14:25:14.031Z,96978.34
2022-08-07T14:28:14.070Z,96980.03
2022-08-07T14:31:13.489Z,96972.47
2022-08-07T14:34:19.983Z,96981.81
2022-08-07T14:37:19.062Z,96980.56
2022-08-07T14:40:26.609Z,96978.16
2022-08-07T14:43:57.212Z,96964.22
2022-08-07T14:46:56.552Z,96969.84
2022-08-07T14:50:11.291Z,96970.63
2022-08-07T14:53:09.972Z,96966.13
2022-08-07T14:56:13.165Z,96962.31
2022-08-07T15:00:05.781Z,96960.53
2022-08-07T15:02:34.499Z,96965.09
2022-08-07T15:05:33.052Z,96968.09
2022-08-07T15:08:50.386Z,96964.47
2022-08-07T15:12:05.257Z,96962.72
2022-08-07T15:15:17.384Z,96961.06
2022-08-07T15:18:33.781Z,96960.13
2022-08-07T15:28:35.865Z,96952.28
2022-08-07T15:32:00.860Z,96955.13
2022-08-07T15:34:57.182Z,96954.84
2022-08-07T15:38:17.427Z,96944.16
2022-08-07T15:41:23.940Z,96947.56
2022-08-07T15:44:51.774Z,96935.88
2022-08-07T15:48:02.068Z,96941.28
2022-08-07T15:51:08.482Z,96940.84
2022-08-07T15:54:11.881Z,96943.66
2022-08-07T15:57:40.210Z,96944.94
2022-08-07T16:00:39.753Z,96938.56
2022-08-07T16:03:46.277Z,96943.31
2022-08-07T16:06:54.325Z,96938.78
2022-08-07T16:09:57.085Z,96925.75
2022-08-07T16:13:59.438Z,96935.38
2022-08-07T16:18:00.950Z,96924.13
2022-08-07T16:20:55.226Z,96925.41
2022-08-07T16:24:37.237Z,96929.28
2022-08-07T16:27:57.259Z,96934.44
2022-08-07T16:31:50.728Z,96922.25
2022-08-07T16:34:48.650Z,96920.34
2022-08-07T16:38:57.250Z,96924.66
2022-08-07T16:42:03.579Z,96926.19
2022-08-07T16:46:33.602Z,96931.19
2022-08-07T16:50:29.368Z,96937.59
2022-08-07T16:54:01.548Z,96931.69
2022-08-07T16:58:00.768Z,96934.88
2022-08-07T17:00:57.126Z,96928.53
2022-08-07T17:04:12.473Z,96923.84
2022-08-07T17:07:57.714Z,96930.44
2022-08-07T17:10:57.418Z,96940.34
2022-08-07T17:14:22.274Z,96936.34
2022-08-07T17:17:48.003Z,96929.25
2022-08-07T17:20:46.543Z,96938.66
2022-08-07T17:23:54.927Z,96927.78
2022-08-07T17:27:10.102Z,96934.03
2022-08-07T17:30:19.155Z,96937.34
2022-08-07T17:33:39.125Z,96937.72
2022-08-07T17:36:59.922Z,96945.44
2022-08-07T17:40:35.470Z,96949.91
2022-08-07T17:44:02.638Z,96946.03
2022-08-07T17:47:16.804Z,96946.31
2022-08-07T17:50:30.532Z,96956.47
2022-08-07T17:54:02.354Z,96954.19
2022-08-07T17:57:58.232Z,96953.63
2022-08-07T18:00:57.572Z,96951.66
2022-08-07T18:04:34.784Z,96951.50
2022-08-07T18:07:46.751Z,96964.34
2022-08-07T18:12:06.491Z,96966.81
2022-08-07T18:15:11.242Z,96962.16
2022-08-07T18:18:47.013Z,96962.69
2022-08-07T18:21:58.537Z,96955.78
2022-08-07T18:25:24.251Z,96966.34
2022-08-07T18:28:36.282Z,96966.34
2022-08-07T18:32:35.293Z,96978.94
2022-08-07T18:36:02.854Z,96976.16
2022-08-07T18:40:07.124Z,96985.00
2022-08-07T18:43:49.177Z,96989.47
2022-08-07T18:47:25.461Z,96995.81
2022-08-07T18:51:09.900Z,97002.41
2022-08-07T18:54:42.569Z,97005.56
2022-08-07T18:57:59.680Z,97015.47
2022-08-07T19:02:18.305Z,97020.84
2022-08-07T19:05:14.954Z,97028.13
2022-08-07T19:08:49.558Z,97034.03
2022-08-07T19:12:20.992Z,97024.66
2022-08-07T19:17:00.355Z,97039.25
2022-08-07T19:19:53.233Z,97038.28
2022-08-07T19:23:18.606Z,97038.84
2022-08-07T19:26:24.643Z,97045.41
2022-08-07T19:31:05.964Z,97043.41
2022-08-07T19:32:51.293Z,97051.38
2022-08-07T19:35:56.579Z,97052.97
2022-08-07T19:39:00.219Z,97054.72
2022-08-07T19:42:08.124Z,97060.91
2022-08-07T19:46:05.750Z,97067.91
2022-08-07T19:49:02.500Z,97064.69
2022-08-07T19:52:01.372Z,97065.75
2022-08-07T19:54:59.817Z,97068.59
2022-08-07T19:58:04.641Z,97069.03
2022-08-07T20:01:15.228Z,97076.84
2022-08-07T20:04:31.518Z,97079.56
2022-08-07T20:07:47.523Z,97081.50
2022-08-07T20:10:55.650Z,97096.25
2022-08-07T20:13:55.851Z,97087.41
2022-08-07T20:16:56.472Z,97088.91
2022-08-07T20:19:58.506Z,97087.25
2022-08-07T20:23:01.386Z,97083.88
2022-08-07T20:26:10.307Z,97094.94
2022-08-07T20:29:17.088Z,97098.97
2022-08-07T20:32:39.694Z,97099.13
2022-08-07T20:35:51.891Z,97107.25
2022-08-07T20:39:17.830Z,97102.53
2022-08-07T20:42:23.767Z,97112.81
2022-08-07T20:45:33.509Z,97118.44
2022-08-07T20:48:58.087Z,97113.31
2022-08-07T20:52:00.156Z,97112.00
2022-08-07T20:54:58.090Z,97118.22
2022-08-07T20:58:03.865Z,97107.22
2022-08-07T21:01:20.034Z,97120.53
2022-08-07T21:04:23.582Z,97118.56
2022-08-07T21:07:23.410Z,97117.72
2022-08-07T21:10:31.365Z,97114.13
2022-08-07T21:13:43.594Z,97117.84
2022-08-07T21:16:56.990Z,97118.44
2022-08-07T21:20:18.934Z,97116.84
2022-08-07T21:24:02.808Z,97117.66
2022-08-07T21:28:05.911Z,97121.19
2022-08-07T21:31:50.060Z,97124.66
2022-08-07T21:34:52.328Z,97124.53
2022-08-07T21:38:21.563Z,97126.28
2022-08-07T21:41:52.273Z,97128.13
2022-08-07T21:45:42.022Z,97122.13
2022-08-07T21:48:57.536Z,97130.69
2022-08-07T21:52:17.711Z,97138.25
2022-08-07T21:55:50.536Z,97139.22
2022-08-07T21:59:09.843Z,97138.75
2022-08-07T22:02:16.033Z,97137.31
2022-08-07T22:05:44.727Z,97142.84
2022-08-07T22:08:49.107Z,97138.47
2022-08-07T22:12:04.924Z,97132.22
2022-08-07T22:16:42.597Z,97136.97
2022-08-07T22:18:54.985Z,97135.38
2022-08-07T22:22:27.896Z,97135.91
2022-08-07T22:25:43.558Z,97143.75
2022-08-07T22:28:53.175Z,97130.41
2022-08-07T22:32:10.595Z,97130.72
2022-08-07T22:35:07.837Z,97133.34
2022-08-07T22:38:28.429Z,97136.63
2022-08-07T22:42:03.136Z,97143.66
2022-08-07T22:45:10.960Z,97140.31
2022-08-07T22:49:00.823Z,97141.41
2022-08-07T22:52:37.004Z,97147.59
2022-08-07T22:56:02.956Z,97145.72
2022-08-07T22:59:37.738Z,97134.09
2022-08-07T23:03:16.999Z,97134.66
2022-08-07T23:06:51.644Z,97137.00
2022-08-07T23:10:41.892Z,97138.19
2022-08-07T23:14:16.626Z,97135.63
2022-08-07T23:18:00.654Z,97129.88
2022-08-07T23:21:20.950Z,97133.91
2022-08-07T23:24:45.545Z,97130.25
2022-08-07T23:28:28.554Z,97141.25
2022-08-07T23:34:23.671Z,97136.88
2022-08-07T23:35:38.827Z,97148.53
2022-08-07T23:39:08.687Z,97144.75
2022-08-07T23:42:48.288Z,97144.75
2022-08-07T23:46:23.789Z,97136.97
2022-08-07T23:50:11.911Z,97138.88
2022-08-07T23:53:51.286Z,97151.25
2022-08-07T23:57:18.429Z,97140.13
